createdAt,value
2016-12-09T00:00:15.164Z,745.53
2016-12-09T00:01:15.144Z,745.68
2016-12-09T00:02:15.134Z,745.55
2016-12-09T00:03:15.110Z,745.52
2016-12-09T00:04:15.099Z,745.47
2016-12-09T00:05:15.075Z,745.45
2016-12-09T00:06:15.058Z,745.47
2016-12-09T00:07:15.040Z,745.35
2016-12-09T00:08:15.022Z,745.34
2016-12-09T00:09:15.006Z,745.32
2016-12-09T00:10:14.988Z,745.24
2016-12-09T00:11:14.976Z,745.18
2016-12-09T00:12:14.960Z,745.4
2016-12-09T00:13:14.943Z,745.13
2016-12-09T00:14:14.926Z,745.2
2016-12-09T00:15:14.907Z,745.12
2016-12-09T00:16:14.884Z,745.34
2016-12-09T00:17:14.874Z,745.22
2016-12-09T00:18:14.856Z,745.37
2016-12-09T00:19:14.839Z,745.47
2016-12-09T00:20:14.822Z,745.44
2016-12-09T00:21:14.798Z,745.42
2016-12-09T00:22:14.780Z,745.28
2016-12-09T00:23:14.763Z,745.43
2016-12-09T00:24:14.745Z,745.08
2016-12-09T00:25:14.736Z,745.31
2016-12-09T00:26:14.719Z,745.35
2016-12-09T00:27:14.704Z,745.2
2016-12-09T00:28:14.677Z,745.19
2016-12-09T00:29:14.665Z,745.21
2016-12-09T00:30:14.643Z,745.18
2016-12-09T00:31:14.625Z,745.04
2016-12-09T00:32:14.614Z,745.21
2016-12-09T00:33:14.589Z,745
2016-12-09T00:34:14.583Z,745.27
2016-12-09T00:35:14.561Z,745.04
2016-12-09T00:36:14.536Z,745.21
2016-12-09T00:37:14.520Z,745.02
2016-12-09T00:38:14.502Z,745.01
2016-12-09T00:39:14.485Z,744.94
2016-12-09T00:40:14.467Z,745.01
2016-12-09T00:41:14.456Z,744.67
2016-12-09T00:42:14.439Z,744.97
2016-12-09T00:43:14.416Z,745.11
2016-12-09T00:44:14.405Z,744.99
2016-12-09T00:45:14.387Z,744.94
2016-12-09T00:46:14.369Z,745.1
2016-12-09T00:47:14.352Z,745.11
2016-12-09T00:48:14.334Z,744.94
2016-12-09T00:49:14.317Z,745.33
2016-12-09T00:50:14.293Z,745.34
2016-12-09T00:51:14.281Z,745.27
2016-12-09T00:52:14.265Z,745.39
2016-12-09T00:53:14.248Z,745.39
2016-12-09T00:54:14.229Z,745.36
2016-12-09T00:55:14.205Z,745.26
2016-12-09T00:56:14.195Z,745.19
2016-12-09T00:57:14.171Z,745.21
2016-12-09T00:58:14.153Z,745.31
2016-12-09T00:59:14.135Z,745.38
2016-12-09T01:00:14.119Z,745.29
2016-12-09T01:01:14.101Z,745.41
2016-12-09T01:02:14.083Z,745.42
2016-12-09T01:03:14.073Z,745.48
2016-12-09T01:04:14.048Z,745.41
2016-12-09T01:05:14.032Z,745.41
2016-12-09T01:06:14.020Z,745.47
2016-12-09T01:07:13.996Z,745.24
2016-12-09T01:08:13.985Z,745.48
2016-12-09T01:09:13.960Z,745.51
2016-12-09T01:10:13.943Z,745.41
2016-12-09T01:11:13.926Z,745.41
2016-12-09T01:12:13.916Z,745.35
2016-12-09T01:13:13.890Z,745.35
2016-12-09T01:14:13.879Z,745.26
2016-12-09T01:15:13.855Z,745.44
2016-12-09T01:16:13.838Z,745.32
2016-12-09T01:17:13.826Z,745.32
2016-12-09T01:18:13.803Z,745.28
2016-12-09T01:19:13.792Z,745.27
2016-12-09T01:20:13.767Z,745.16
2016-12-09T01:21:13.750Z,745.14
2016-12-09T01:22:13.740Z,745.38
2016-12-09T01:23:13.722Z,745.02
2016-12-09T01:24:13.696Z,745.44
2016-12-09T01:25:13.679Z,745.32
2016-12-09T01:26:13.662Z,745.26
2016-12-09T01:27:13.644Z,745.16
2016-12-09T01:28:13.632Z,745.27
2016-12-09T01:29:13.616Z,745.11
2016-12-09T01:30:13.591Z,745.29
2016-12-09T01:31:13.580Z,745.1
2016-12-09T01:32:13.562Z,745.18
2016-12-09T01:33:13.538Z,745.03
2016-12-09T01:34:13.521Z,745.08
2016-12-09T01:35:13.502Z,745.2
2016-12-09T01:36:13.485Z,745
2016-12-09T01:37:13.468Z,744.88
2016-12-09T01:38:13.457Z,745.38
2016-12-09T01:39:13.438Z,745.01
2016-12-09T01:40:13.421Z,744.91
2016-12-09T01:41:13.397Z,745.05
2016-12-09T01:42:13.379Z,745.06
2016-12-09T01:43:13.368Z,745.11
2016-12-09T01:44:13.351Z,745.25
2016-12-09T01:45:13.335Z,745.06
2016-12-09T01:46:13.316Z,745.02
2016-12-09T01:47:13.295Z,745.18
2016-12-09T01:48:13.278Z,744.95
2016-12-09T01:49:13.264Z,745.01
2016-12-09T01:50:13.239Z,744.93
2016-12-09T01:51:13.228Z,744.73
2016-12-09T01:52:13.204Z,745.01
2016-12-09T01:53:13.192Z,744.89
2016-12-09T01:54:13.174Z,744.92
2016-12-09T01:55:13.151Z,744.9
2016-12-09T01:56:13.134Z,744.79
2016-12-09T01:57:13.116Z,744.96
2016-12-09T01:58:13.105Z,744.69
2016-12-09T01:59:13.081Z,744.87
2016-12-09T02:00:13.064Z,744.87
2016-12-09T02:01:13.046Z,745
2016-12-09T02:02:13.029Z,744.7
2016-12-09T02:03:13.011Z,744.78
2016-12-09T02:04:13.000Z,744.82
2016-12-09T02:05:12.985Z,744.84
2016-12-09T02:06:12.959Z,744.88
2016-12-09T02:07:12.952Z,744.74
2016-12-09T02:08:12.930Z,744.8
2016-12-09T02:09:12.906Z,744.84
2016-12-09T02:10:12.888Z,744.76
2016-12-09T02:11:12.877Z,744.78
2016-12-09T02:12:12.853Z,744.72
2016-12-09T02:13:12.835Z,744.84
2016-12-09T02:14:12.818Z,744.73
2016-12-09T02:15:12.807Z,744.75
2016-12-09T02:16:12.789Z,744.83
2016-12-09T02:17:12.770Z,744.82
2016-12-09T02:18:12.754Z,744.84
2016-12-09T02:19:12.728Z,744.89
2016-12-09T02:20:12.711Z,744.69
2016-12-09T02:21:12.700Z,744.97
2016-12-09T02:22:12.675Z,744.78
2016-12-09T02:23:12.664Z,744.81
2016-12-09T02:24:12.640Z,744.66
2016-12-09T02:25:12.623Z,744.82
2016-12-09T02:26:12.611Z,744.87
2016-12-09T02:27:12.592Z,744.84
2016-12-09T02:28:12.569Z,744.68
2016-12-09T02:29:12.558Z,744.92
2016-12-09T02:30:12.533Z,744.83
2016-12-09T02:31:12.523Z,745.19
2016-12-09T02:32:12.504Z,744.84
2016-12-09T02:33:12.480Z,744.79
2016-12-09T02:34:12.462Z,744.73
2016-12-09T02:35:12.445Z,744.83
2016-12-09T02:36:12.428Z,744.72
2016-12-09T02:37:12.409Z,744.88
2016-12-09T02:38:12.398Z,744.97
2016-12-09T02:39:12.382Z,744.59
2016-12-09T02:40:12.364Z,744.78
2016-12-09T02:41:12.339Z,744.77
2016-12-09T02:42:12.321Z,744.58
2016-12-09T02:43:12.304Z,744.76
2016-12-09T02:44:12.293Z,744.81
2016-12-09T02:45:12.268Z,744.77
2016-12-09T02:46:12.258Z,744.57
2016-12-09T02:47:12.233Z,744.76
2016-12-09T02:48:12.221Z,744.72
2016-12-09T02:49:12.204Z,744.73
2016-12-09T02:50:12.180Z,744.77
2016-12-09T02:51:12.168Z,744.66
2016-12-09T02:52:12.150Z,744.98
2016-12-09T02:53:12.143Z,744.73
2016-12-09T02:54:12.108Z,744.76
2016-12-09T02:55:12.097Z,744.59
2016-12-09T02:56:12.073Z,744.77
2016-12-09T02:57:12.055Z,744.81
2016-12-09T02:58:12.038Z,744.58
2016-12-09T02:59:12.026Z,744.67
2016-12-09T03:00:12.010Z,744.71
2016-12-09T03:01:11.985Z,744.66
2016-12-09T03:02:11.967Z,744.74
2016-12-09T03:03:11.956Z,744.7
2016-12-09T03:04:11.931Z,744.71
2016-12-09T03:05:11.920Z,744.69
2016-12-09T03:06:11.901Z,744.71
2016-12-09T03:07:11.883Z,744.74
2016-12-09T03:08:11.866Z,744.65
2016-12-09T03:09:11.849Z,744.76
2016-12-09T03:10:11.823Z,744.76
2016-12-09T03:11:11.813Z,744.66
2016-12-09T03:12:11.789Z,744.68
2016-12-09T03:13:11.771Z,744.61
2016-12-09T03:14:11.753Z,744.58
2016-12-09T03:15:11.735Z,744.66
2016-12-09T03:16:11.724Z,744.57
2016-12-09T03:17:11.705Z,744.53
2016-12-09T03:18:11.689Z,744.66
2016-12-09T03:19:11.664Z,744.69
2016-12-09T03:20:11.653Z,744.8
2016-12-09T03:21:11.634Z,744.63
2016-12-09T03:22:11.616Z,744.92
2016-12-09T03:23:11.592Z,744.78
2016-12-09T03:24:11.574Z,744.86
2016-12-09T03:25:11.556Z,744.78
2016-12-09T03:26:11.538Z,744.76
2016-12-09T03:27:11.521Z,744.84
2016-12-09T03:28:11.502Z,744.87
2016-12-09T03:29:11.491Z,744.72
2016-12-09T03:30:11.467Z,744.82
2016-12-09T03:31:11.449Z,744.92
2016-12-09T03:32:11.438Z,744.71
2016-12-09T03:33:11.420Z,744.71
2016-12-09T03:34:11.403Z,744.72
2016-12-09T03:35:11.378Z,744.9
2016-12-09T03:36:11.366Z,744.83
2016-12-09T03:37:11.350Z,744.84
2016-12-09T03:38:11.331Z,744.75
2016-12-09T03:39:11.306Z,744.82
2016-12-09T03:40:11.289Z,744.93
2016-12-09T03:41:11.272Z,744.74
2016-12-09T03:42:11.254Z,744.78
2016-12-09T03:43:11.244Z,744.8
2016-12-09T03:44:11.224Z,744.74
2016-12-09T03:45:11.200Z,744.74
2016-12-09T03:46:11.181Z,744.8
2016-12-09T03:47:11.170Z,744.69
2016-12-09T03:48:11.152Z,744.7
2016-12-09T03:49:11.128Z,744.65
2016-12-09T03:50:11.109Z,744.81
2016-12-09T03:51:11.099Z,744.6
2016-12-09T03:52:11.074Z,744.79
2016-12-09T03:53:11.056Z,744.58
2016-12-09T03:54:11.045Z,744.91
2016-12-09T03:55:11.027Z,744.86
2016-12-09T03:56:11.009Z,744.76
2016-12-09T03:57:10.989Z,744.71
2016-12-09T03:58:10.972Z,744.66
2016-12-09T03:59:10.947Z,744.82
2016-12-09T04:00:10.936Z,744.66
2016-12-09T04:01:10.917Z,744.58
2016-12-09T04:02:10.892Z,744.6
2016-12-09T04:03:10.881Z,744.78
2016-12-09T04:04:10.862Z,744.85
2016-12-09T04:05:10.844Z,744.71
2016-12-09T04:06:10.819Z,744.82
2016-12-09T04:07:10.801Z,744.56
2016-12-09T04:08:10.792Z,744.73
2016-12-09T04:09:10.764Z,744.91
2016-12-09T04:10:10.746Z,744.68
2016-12-09T04:11:10.735Z,744.67
2016-12-09T04:12:10.709Z,744.75
2016-12-09T04:13:10.697Z,744.66
2016-12-09T04:14:10.673Z,744.71
2016-12-09T04:15:10.655Z,744.74
2016-12-09T04:16:10.647Z,744.72
2016-12-09T04:17:10.619Z,744.82
2016-12-09T04:18:10.600Z,744.73
2016-12-09T04:19:10.589Z,745.05
2016-12-09T04:20:10.563Z,744.82
2016-12-09T04:21:10.546Z,744.54
2016-12-09T04:22:10.528Z,744.6
2016-12-09T04:23:10.519Z,744.64
2016-12-09T04:24:10.499Z,744.77
2016-12-09T04:25:10.473Z,744.88
2016-12-09T04:26:10.463Z,744.65
2016-12-09T04:27:10.436Z,744.66
2016-12-09T04:28:10.425Z,744.59
2016-12-09T04:29:10.408Z,744.4
2016-12-09T04:30:10.381Z,744.44
2016-12-09T04:31:10.363Z,744.54
2016-12-09T04:32:10.352Z,744.52
2016-12-09T04:33:10.327Z,744.59
2016-12-09T04:34:10.316Z,744.45
2016-12-09T04:35:10.298Z,744.54
2016-12-09T04:36:10.272Z,744.44
2016-12-09T04:37:10.261Z,744.38
2016-12-09T04:38:10.235Z,744.43
2016-12-09T04:39:10.223Z,744.29
2016-12-09T04:40:10.205Z,744.66
2016-12-09T04:41:10.180Z,744.38
2016-12-09T04:42:10.169Z,744.35
2016-12-09T04:43:10.161Z,744.56
2016-12-09T04:44:10.132Z,744.54
2016-12-09T04:45:10.106Z,744.43
2016-12-09T04:46:10.088Z,744.69
2016-12-09T04:47:10.078Z,744.62
2016-12-09T04:48:10.059Z,744.63
2016-12-09T04:49:10.034Z,744.64
2016-12-09T04:50:10.023Z,744.64
2016-12-09T04:51:10.003Z,744.6
2016-12-09T04:52:09.978Z,744.51
2016-12-09T04:53:09.967Z,744.38
2016-12-09T04:54:09.942Z,744.45
2016-12-09T04:55:09.924Z,744.45
2016-12-09T04:56:09.912Z,744.4
2016-12-09T04:57:09.887Z,744.38
2016-12-09T04:58:09.875Z,744.44
2016-12-09T04:59:09.858Z,744.53
2016-12-09T05:00:09.831Z,744.39
2016-12-09T05:01:09.824Z,744.29
2016-12-09T05:02:09.802Z,744.45
2016-12-09T05:03:09.776Z,744.54
2016-12-09T05:04:09.765Z,744.36
2016-12-09T05:05:09.740Z,744.47
2016-12-09T05:06:09.728Z,744.51
2016-12-09T05:07:09.703Z,744.43
2016-12-09T05:08:09.685Z,744.44
2016-12-09T05:09:09.673Z,744.54
2016-12-09T05:10:09.649Z,744.22
2016-12-09T05:11:09.631Z,744.45
2016-12-09T05:12:09.619Z,744.16
2016-12-09T05:13:09.602Z,744.36
2016-12-09T05:14:09.582Z,744.42
2016-12-09T05:15:09.564Z,744.39
2016-12-09T05:16:09.539Z,744.36
2016-12-09T05:17:09.521Z,744.44
2016-12-09T05:18:09.509Z,744.47
2016-12-09T05:19:09.490Z,744.63
2016-12-09T05:20:09.466Z,744.51
2016-12-09T05:21:09.457Z,744.59
2016-12-09T05:22:09.436Z,744.69
2016-12-09T05:23:09.410Z,744.49
2016-12-09T05:24:09.392Z,744.4
2016-12-09T05:25:09.380Z,744.63
2016-12-09T05:26:09.356Z,744.66
2016-12-09T05:27:09.338Z,744.44
2016-12-09T05:28:09.327Z,744.51
2016-12-09T05:29:09.308Z,744.41
2016-12-09T05:30:09.290Z,744.4
2016-12-09T05:31:09.265Z,744.5
2016-12-09T05:32:09.246Z,744.46
2016-12-09T05:33:09.228Z,744.46
2016-12-09T05:34:09.216Z,744.72
2016-12-09T05:35:09.196Z,744.56
2016-12-09T05:36:09.180Z,744.52
2016-12-09T05:37:09.155Z,744.45
2016-12-09T05:38:09.145Z,744.5
2016-12-09T05:39:09.126Z,744.49
2016-12-09T05:40:09.107Z,744.72
2016-12-09T05:41:09.090Z,744.52
2016-12-09T05:42:09.064Z,744.42
2016-12-09T05:43:09.045Z,744.46
2016-12-09T05:44:09.035Z,744.58
2016-12-09T05:45:09.016Z,744.62
2016-12-09T05:46:08.998Z,744.53
2016-12-09T05:47:08.980Z,744.49
2016-12-09T05:48:08.961Z,744.4
2016-12-09T05:49:08.944Z,744.54
2016-12-09T05:50:08.919Z,744.41
2016-12-09T05:51:08.899Z,744.4
2016-12-09T05:52:08.882Z,744.54
2016-12-09T05:53:08.864Z,744.49
2016-12-09T05:54:08.851Z,744.48
2016-12-09T05:55:08.834Z,744.5
2016-12-09T05:56:08.809Z,744.52
2016-12-09T05:57:08.791Z,744.42
2016-12-09T05:58:08.772Z,744.37
2016-12-09T05:59:08.754Z,744.48
2016-12-09T06:00:08.742Z,744.48
2016-12-09T06:01:08.725Z,744.62
2016-12-09T06:02:08.705Z,744.54
2016-12-09T06:03:08.687Z,744.62
2016-12-09T06:04:08.670Z,744.57
2016-12-09T06:05:08.644Z,744.5
2016-12-09T06:06:08.633Z,744.37
2016-12-09T06:07:08.614Z,744.65
2016-12-09T06:08:08.590Z,744.6
2016-12-09T06:09:08.579Z,744.57
2016-12-09T06:10:08.560Z,744.35
2016-12-09T06:11:08.535Z,744.56
2016-12-09T06:12:08.517Z,744.5
2016-12-09T06:13:08.505Z,744.73
2016-12-09T06:14:08.480Z,744.6
2016-12-09T06:15:08.462Z,744.41
2016-12-09T06:16:08.443Z,744.58
2016-12-09T06:17:08.431Z,744.48
2016-12-09T06:18:08.413Z,744.7
2016-12-09T06:19:08.389Z,744.56
2016-12-09T06:20:08.369Z,744.5
2016-12-09T06:21:08.358Z,744.67
2016-12-09T06:22:08.334Z,744.69
2016-12-09T06:23:08.326Z,744.53
2016-12-09T06:24:08.303Z,744.58
2016-12-09T06:25:08.288Z,744.55
2016-12-09T06:26:08.261Z,744.63
2016-12-09T06:27:08.248Z,744.72
2016-12-09T06:28:08.224Z,744.58
2016-12-09T06:29:08.206Z,744.6
2016-12-09T06:30:08.188Z,744.49
2016-12-09T06:31:08.169Z,744.44
2016-12-09T06:32:08.151Z,744.71
2016-12-09T06:33:08.133Z,744.6
2016-12-09T06:34:08.115Z,744.52
2016-12-09T06:35:08.103Z,744.7
2016-12-09T06:36:08.085Z,744.65
2016-12-09T06:37:08.067Z,744.53
2016-12-09T06:38:08.048Z,744.54
2016-12-09T06:39:08.029Z,744.59
2016-12-09T06:40:08.005Z,744.66
2016-12-09T06:41:07.994Z,744.66
2016-12-09T06:42:07.974Z,744.7
2016-12-09T06:43:07.950Z,744.58
2016-12-09T06:44:07.938Z,744.63
2016-12-09T06:45:07.914Z,744.6
2016-12-09T06:46:07.902Z,744.49
2016-12-09T06:47:07.878Z,744.58
2016-12-09T06:48:07.867Z,744.46
2016-12-09T06:49:07.841Z,744.74
2016-12-09T06:50:07.824Z,744.52
2016-12-09T06:51:07.813Z,744.55
2016-12-09T06:52:07.788Z,744.76
2016-12-09T06:53:07.769Z,744.7
2016-12-09T06:54:07.751Z,744.39
2016-12-09T06:55:07.733Z,744.54
2016-12-09T06:56:07.721Z,744.61
2016-12-09T06:57:07.704Z,744.58
2016-12-09T06:58:07.679Z,744.71
2016-12-09T06:59:07.667Z,744.74
2016-12-09T07:00:07.642Z,744.88
2016-12-09T07:01:07.630Z,744.7
2016-12-09T07:02:07.606Z,744.73
2016-12-09T07:03:07.590Z,744.65
2016-12-09T07:04:07.577Z,744.79
2016-12-09T07:05:07.552Z,744.78
2016-12-09T07:06:07.534Z,744.62
2016-12-09T07:07:07.516Z,744.56
2016-12-09T07:08:07.504Z,744.68
2016-12-09T07:09:07.488Z,744.71
2016-12-09T07:10:07.470Z,744.64
2016-12-09T07:11:07.444Z,744.84
2016-12-09T07:12:07.434Z,744.96
2016-12-09T07:13:07.409Z,744.81
2016-12-09T07:14:07.391Z,744.86
2016-12-09T07:15:07.574Z,744.79
2016-12-09T07:16:07.355Z,744.68
2016-12-09T07:17:07.337Z,744.68
2016-12-09T07:18:07.318Z,744.64
2016-12-09T07:19:07.308Z,744.87
2016-12-09T07:20:07.285Z,744.84
2016-12-09T07:21:07.272Z,744.81
2016-12-09T07:22:07.247Z,744.73
2016-12-09T07:23:07.236Z,744.83
2016-12-09T07:24:07.212Z,744.71
2016-12-09T07:25:07.200Z,744.78
2016-12-09T07:26:07.175Z,744.83
2016-12-09T07:27:07.166Z,744.98
2016-12-09T07:28:07.147Z,744.84
2016-12-09T07:29:07.130Z,744.81
2016-12-09T07:30:07.113Z,744.67
2016-12-09T07:31:07.094Z,744.76
2016-12-09T07:32:07.070Z,744.7
2016-12-09T07:33:07.058Z,744.54
2016-12-09T07:34:07.045Z,744.91
2016-12-09T07:35:07.018Z,744.6
2016-12-09T07:36:07.008Z,744.76
2016-12-09T07:37:06.983Z,744.66
2016-12-09T07:38:06.965Z,744.85
2016-12-09T07:39:06.949Z,744.7
2016-12-09T07:40:06.930Z,744.9
2016-12-09T07:41:06.913Z,744.83
2016-12-09T07:42:06.903Z,744.96
2016-12-09T07:43:06.879Z,744.42
2016-12-09T07:45:06.843Z,744.9
2016-12-09T07:46:06.833Z,744.95
2016-12-09T07:47:06.816Z,744.9
2016-12-09T07:48:06.798Z,744.93
2016-12-09T07:49:06.783Z,744.71
2016-12-09T07:50:06.760Z,744.82
2016-12-09T07:51:06.741Z,744.91
2016-12-09T07:52:06.725Z,744.83
2016-12-09T07:53:06.715Z,744.82
2016-12-09T07:54:06.692Z,744.87
2016-12-09T07:55:06.680Z,744.88
2016-12-09T07:56:06.665Z,744.91
2016-12-09T07:57:06.641Z,744.97
2016-12-09T07:58:06.624Z,744.76
2016-12-09T07:59:06.613Z,744.71
2016-12-09T08:00:06.590Z,745.02
2016-12-09T08:01:06.574Z,744.61
2016-12-09T08:02:06.563Z,744.68
2016-12-09T08:03:06.547Z,744.69
2016-12-09T08:04:06.522Z,744.69
2016-12-09T08:05:06.513Z,744.7
2016-12-09T08:06:06.488Z,744.79
2016-12-09T08:07:06.471Z,744.6
2016-12-09T08:08:06.454Z,744.71
2016-12-09T08:09:06.444Z,744.8
2016-12-09T08:10:06.419Z,744.66
2016-12-09T08:11:06.408Z,744.75
2016-12-09T08:12:06.393Z,744.9
2016-12-09T08:13:06.367Z,744.64
2016-12-09T08:14:06.560Z,744.72
2016-12-09T08:15:06.340Z,744.72
2016-12-09T08:16:06.323Z,744.56
2016-12-09T08:17:06.305Z,744.41
2016-12-09T08:18:06.282Z,744.86
2016-12-09T08:19:06.266Z,744.96
2016-12-09T08:20:06.249Z,744.66
2016-12-09T08:21:06.235Z,744.69
2016-12-09T08:22:06.216Z,744.61
2016-12-09T08:23:06.199Z,744.8
2016-12-09T08:24:06.189Z,744.58
2016-12-09T08:25:06.173Z,744.92
2016-12-09T08:26:06.156Z,744.84
2016-12-09T08:27:06.139Z,745.08
2016-12-09T08:28:06.122Z,745.26
2016-12-09T08:29:06.105Z,745.11
2016-12-09T08:30:06.082Z,745.34
2016-12-09T08:31:06.065Z,744.8
2016-12-09T08:32:06.048Z,744.8
2016-12-09T08:33:06.038Z,744.79
2016-12-09T08:34:06.023Z,744.82
2016-12-09T08:35:05.998Z,744.99
2016-12-09T08:36:05.982Z,745.11
2016-12-09T08:37:05.972Z,745.06
2016-12-09T08:38:05.949Z,745.02
2016-12-09T08:39:05.940Z,744.89
2016-12-09T08:40:05.915Z,745.21
2016-12-09T08:41:05.907Z,745.09
2016-12-09T08:42:06.084Z,745.09
2016-12-09T08:43:05.874Z,745.25
2016-12-09T08:44:05.850Z,745.03
2016-12-09T08:45:05.834Z,745.06
2016-12-09T08:46:05.817Z,745.08
2016-12-09T08:47:05.807Z,744.93
2016-12-09T08:48:05.792Z,744.9
2016-12-09T08:49:05.769Z,744.8
2016-12-09T08:50:05.758Z,744.95
2016-12-09T08:51:05.743Z,745.1
2016-12-09T08:52:05.726Z,745.09
2016-12-09T08:53:05.710Z,745.23
2016-12-09T08:54:05.687Z,745.32
2016-12-09T08:55:05.671Z,745.55
2016-12-09T08:56:05.662Z,745.39
2016-12-09T08:57:05.645Z,745.06
2016-12-09T08:58:05.622Z,745.3
2016-12-09T08:59:05.606Z,745.1
2016-12-09T09:00:05.596Z,745.12
2016-12-09T09:01:05.579Z,745.18
2016-12-09T09:02:05.563Z,745.3
2016-12-09T09:03:05.548Z,745.5
2016-12-09T09:04:05.525Z,745.23
2016-12-09T09:05:05.516Z,745.01
2016-12-09T09:06:05.499Z,745.17
2016-12-09T09:07:05.484Z,745.36
2016-12-09T09:08:05.468Z,744.94
2016-12-09T09:09:05.451Z,745.36
2016-12-09T09:10:05.435Z,745.3
2016-12-09T09:11:05.413Z,745.13
2016-12-09T09:12:05.403Z,745.48
2016-12-09T09:13:05.388Z,745.44
2016-12-09T09:14:05.365Z,745.4
2016-12-09T09:15:05.348Z,745.54
2016-12-09T09:16:05.332Z,745.54
2016-12-09T09:17:05.316Z,745.45
2016-12-09T09:18:05.301Z,745.66
2016-12-09T09:19:05.291Z,745.45
2016-12-09T09:20:05.275Z,745.58
2016-12-09T09:21:05.254Z,745.38
2016-12-09T09:22:05.244Z,745.59
2016-12-09T09:23:05.222Z,745.38
2016-12-09T09:24:05.213Z,745.51
2016-12-09T09:25:05.191Z,745.36
2016-12-09T09:26:05.175Z,745.59
2016-12-09T09:27:05.159Z,745.7
2016-12-09T09:28:05.150Z,745.45
2016-12-09T09:29:05.134Z,745.55
2016-12-09T09:30:05.119Z,745.57
2016-12-09T09:31:05.102Z,745.61
2016-12-09T09:32:05.087Z,745.67
2016-12-09T09:33:05.071Z,745.53
2016-12-09T09:34:05.049Z,745.63
2016-12-09T09:35:05.040Z,745.6
2016-12-09T09:36:05.018Z,745.65
2016-12-09T09:37:05.002Z,745.49
2016-12-09T09:38:04.993Z,745.48
2016-12-09T09:39:04.979Z,745.52
2016-12-09T09:40:04.957Z,745.51
2016-12-09T09:41:04.941Z,745.26
2016-12-09T09:42:04.926Z,745.55
2016-12-09T09:43:04.911Z,745.57
2016-12-09T09:44:04.902Z,745.57
2016-12-09T09:45:04.886Z,745.41
2016-12-09T09:46:04.871Z,745.26
2016-12-09T09:47:04.856Z,745.37
2016-12-09T09:48:04.833Z,745.51
2016-12-09T09:49:04.818Z,745.46
2016-12-09T09:50:04.803Z,745.46
2016-12-09T09:51:04.788Z,745.46
2016-12-09T09:52:04.778Z,745.48
2016-12-09T09:53:04.764Z,745.49
2016-12-09T09:54:04.742Z,745.44
2016-12-09T09:55:04.733Z,745.58
2016-12-09T09:56:04.719Z,745.38
2016-12-09T09:57:04.698Z,745.49
2016-12-09T09:58:04.682Z,745.37
2016-12-09T09:59:04.666Z,745.48
2016-12-09T10:00:04.659Z,745.5
2016-12-09T10:01:04.644Z,745.53
2016-12-09T10:02:04.622Z,745.49
2016-12-09T10:03:04.614Z,745.51
2016-12-09T10:04:04.593Z,745.46
2016-12-09T10:05:04.585Z,745.41
2016-12-09T10:06:04.570Z,745.43
2016-12-09T10:07:04.554Z,745.45
2016-12-09T10:08:04.540Z,745.46
2016-12-09T10:09:04.518Z,745.5
2016-12-09T10:10:04.532Z,745.43
2016-12-09T10:11:04.494Z,745.4
2016-12-09T10:12:04.480Z,745.46
2016-12-09T10:13:04.457Z,745.49
2016-12-09T10:14:04.442Z,745.38
2016-12-09T10:15:04.433Z,745.48
2016-12-09T10:16:04.412Z,745.46
2016-12-09T10:17:04.403Z,745.41
2016-12-09T10:18:04.381Z,745.44
2016-12-09T10:19:04.373Z,745.3
2016-12-09T10:20:04.351Z,745.35
2016-12-09T10:21:04.335Z,745.35
2016-12-09T10:22:04.332Z,745.59
2016-12-09T10:23:04.305Z,745.41
2016-12-09T10:24:04.297Z,745.4
2016-12-09T10:25:04.275Z,745.33
2016-12-09T10:26:04.260Z,745.24
2016-12-09T10:27:04.246Z,745.36
2016-12-09T10:28:04.236Z,745.18
2016-12-09T10:29:04.216Z,745.28
2016-12-09T10:30:04.208Z,745.35
2016-12-09T10:31:04.186Z,745.34
2016-12-09T10:32:04.171Z,745.25
2016-12-09T10:33:04.162Z,745.34
2016-12-09T10:34:04.141Z,745.34
2016-12-09T10:35:04.134Z,745.29
2016-12-09T10:36:04.111Z,745.43
2016-12-09T10:37:04.103Z,745.4
2016-12-09T10:38:04.083Z,745.4
2016-12-09T10:39:04.068Z,745.43
2016-12-09T10:40:04.060Z,745.34
2016-12-09T10:41:04.040Z,745.36
2016-12-09T10:42:04.033Z,745.31
2016-12-09T10:43:04.011Z,745.35
2016-12-09T10:44:04.004Z,745.42
2016-12-09T10:45:03.992Z,745.49
2016-12-09T10:46:03.978Z,745.3
2016-12-09T10:47:03.958Z,745.48
2016-12-09T10:48:03.946Z,745.44
2016-12-09T10:49:03.932Z,745.43
2016-12-09T10:50:03.926Z,745.46
2016-12-09T10:51:03.913Z,745.46
2016-12-09T10:52:03.901Z,745.37
2016-12-09T10:53:03.882Z,745.44
2016-12-09T10:54:03.869Z,745.45
2016-12-09T10:55:03.856Z,745.44
2016-12-09T10:56:03.850Z,745.53
2016-12-09T10:57:03.838Z,745.31
2016-12-09T10:58:03.817Z,745.53
2016-12-09T10:59:03.804Z,745.35
2016-12-09T11:00:03.790Z,745.4
2016-12-09T11:01:03.776Z,745.46
2016-12-09T11:02:03.762Z,745.37
2016-12-09T11:03:03.754Z,745.5
2016-12-09T11:04:03.742Z,745.52
2016-12-09T11:05:03.727Z,745.43
2016-12-09T11:06:03.705Z,745.49
2016-12-09T11:07:03.691Z,745.47
2016-12-09T11:08:03.678Z,745.46
2016-12-09T11:09:03.668Z,745.55
2016-12-09T11:10:03.654Z,745.38
2016-12-09T11:11:03.634Z,745.48
2016-12-09T11:12:03.618Z,745.4
2016-12-09T11:13:03.604Z,745.38
2016-12-09T11:14:03.590Z,745.41
2016-12-09T11:15:03.575Z,745.43
2016-12-09T11:16:03.566Z,745.27
2016-12-09T11:17:03.552Z,745.35
2016-12-09T11:18:03.530Z,745.45
2016-12-09T11:19:03.521Z,745.5
2016-12-09T11:20:03.499Z,745.41
2016-12-09T11:21:03.485Z,745.42
2016-12-09T11:22:03.470Z,745.38
2016-12-09T11:23:03.454Z,745.36
2016-12-09T11:24:03.440Z,745.41
2016-12-09T11:25:03.424Z,745.4
2016-12-09T11:26:03.411Z,745.42
2016-12-09T11:27:03.402Z,745.41
2016-12-09T11:28:03.379Z,745.45
2016-12-09T11:29:03.364Z,745.32
2016-12-09T11:30:03.350Z,745.28
2016-12-09T11:31:03.335Z,745.22
2016-12-09T11:32:03.327Z,745.46
2016-12-09T11:33:03.316Z,745.22
2016-12-09T11:34:03.289Z,745.23
2016-12-09T11:35:03.282Z,745.16
2016-12-09T11:36:03.266Z,745.2
2016-12-09T11:37:03.252Z,745.22
2016-12-09T11:38:03.236Z,745.18
2016-12-09T11:39:03.214Z,745.37
2016-12-09T11:40:03.205Z,745.33
2016-12-09T11:41:03.183Z,745.31
2016-12-09T11:42:03.168Z,745.17
2016-12-09T11:43:03.161Z,745.29
2016-12-09T11:44:03.145Z,745.15
2016-12-09T11:45:03.123Z,745.19
2016-12-09T11:46:03.114Z,745.26
2016-12-09T11:47:03.099Z,745.38
2016-12-09T11:48:03.085Z,745.31
2016-12-09T11:49:03.070Z,745.27
2016-12-09T11:50:03.054Z,745.03
2016-12-09T11:51:03.039Z,744.81
2016-12-09T11:52:03.017Z,745.13
2016-12-09T11:53:03.009Z,745.26
2016-12-09T11:54:02.988Z,745.16
2016-12-09T11:55:02.979Z,745.19
2016-12-09T11:56:02.957Z,745.07
2016-12-09T11:57:02.949Z,745.23
2016-12-09T11:58:02.927Z,745.26
2016-12-09T11:59:02.912Z,745.24
2016-12-09T12:00:02.902Z,745.15
2016-12-09T12:01:02.881Z,745.25
2016-12-09T12:02:02.873Z,745.21
2016-12-09T12:03:02.851Z,745.39
2016-12-09T12:04:02.842Z,745.34
2016-12-09T12:05:02.828Z,745.22
2016-12-09T12:06:02.806Z,745.19
2016-12-09T12:07:02.790Z,745.22
2016-12-09T12:08:02.782Z,745.21
2016-12-09T12:09:02.917Z,745.17
2016-12-09T12:10:02.752Z,745.17
2016-12-09T12:11:02.735Z,745.23
2016-12-09T12:12:02.715Z,745.3
2016-12-09T12:13:02.699Z,745.26
2016-12-09T12:14:02.690Z,745.16
2016-12-09T12:15:02.668Z,745.28
2016-12-09T12:16:02.660Z,745.19
2016-12-09T12:17:02.645Z,745.32
2016-12-09T12:18:02.629Z,745.3
2016-12-09T12:19:02.607Z,745.12
2016-12-09T12:20:02.592Z,745.15
2016-12-09T12:21:02.583Z,745.28
2016-12-09T12:22:02.561Z,744.96
2016-12-09T12:23:02.546Z,745.18
2016-12-09T12:24:02.537Z,745.33
2016-12-09T12:25:02.515Z,745.29
2016-12-09T12:26:02.500Z,745.31
2016-12-09T12:27:02.485Z,745.16
2016-12-09T12:28:02.470Z,745.11
2016-12-09T12:29:02.454Z,745.2
2016-12-09T12:30:02.445Z,745.37
2016-12-09T12:31:02.424Z,745.33
2016-12-09T12:32:02.409Z,745.28